Time;durP1;ratioP1;P1;durP2;ratioP2;P2;SDS_P1;SDS_P2;PMS_P1;PMS_P2;Temp;Humidity;BMP_temperature;BMP_pressure;BME280_temperature;BME280_humidity;BME280_pressure;Samples;Min_cycle;Max_cycle;Signal;HPM_P1;HPM_P2
2024/01/08 00:00:14;;;;;;;6.60;3.53;;;;;;;-1.93;89.13;145790.41;4959347;28;20602;-63
2024/01/08 00:02:40;;;;;;;6.30;3.50;;;;;;;-1.89;86.92;145797.81;4965615;28;20700;-63
2024/01/08 00:05:07;;;;;;;7.40;3.63;;;;;;;-1.93;89.94;145789.22;4962926;28;20229;-63
2024/01/08 00:07:35;;;;;;;6.07;3.40;;;;;;;-2.00;88.63;145773.13;4966535;28;20244;-63
2024/01/08 00:10:02;;;;;;;7.37;2.97;;;;;;;-2.02;85.94;145768.19;4963907;28;20228;-64
2024/01/08 00:12:29;;;;;;;7.35;3.97;;;;;;;-2.12;87.55;145743.56;4964025;28;20477;-63
2024/01/08 00:14:55;;;;;;;5.87;3.40;;;;;;;-2.12;87.57;145743.56;4961177;28;20248;-63
2024/01/08 00:17:22;;;;;;;4.43;3.10;;;;;;;-2.11;87.56;145747.25;4965274;28;20236;-63
2024/01/08 00:19:49;;;;;;;4.77;3.17;;;;;;;-2.18;87.67;145728.75;4962742;28;20588;-63
2024/01/08 00:22:15;;;;;;;7.00;3.33;;;;;;;-2.15;85.56;145737.38;4961036;28;20236;-63
2024/01/08 00:24:43;;;;;;;5.13;2.90;;;;;;;-2.15;85.64;145736.16;4963644;28;20235;-63
2024/01/08 00:27:10;;;;;;;4.83;3.20;;;;;;;-2.06;85.60;145758.31;4961335;28;20232;-63
2024/01/08 00:29:37;;;;;;;5.23;2.90;;;;;;;-2.06;86.46;145758.31;4962483;28;20240;-63
2024/01/08 00:32:05;;;;;;;6.00;3.10;;;;;;;-2.05;85.25;145760.78;4962405;28;20232;-63
2024/01/08 00:34:33;;;;;;;4.07;2.73;;;;;;;-2.08;84.88;145753.38;4964553;28;20666;-63
2024/01/08 00:36:59;;;;;;;5.30;3.13;;;;;;;-2.06;85.06;145758.31;4961005;28;20239;-63
2024/01/08 00:39:27;;;;;;;7.97;3.03;;;;;;;-2.04;85.10;145763.25;4963169;28;20232;-63
2024/01/08 00:41:55;;;;;;;2.13;1.37;;;;;;;-2.13;83.37;145742.31;4961296;28;20224;-63
2024/01/08 00:44:21;;;;;;;4.30;2.63;;;;;;;-2.06;82.25;145758.31;4964746;28;20251;-63
2024/01/08 00:46:48;;;;;;;4.17;2.80;;;;;;;-2.14;82.71;145738.63;4957251;28;20239;-63
2024/01/08 00:49:14;;;;;;;5.00;2.83;;;;;;;-2.10;83.07;145748.44;4962429;28;20222;-63
2024/01/08 00:51:41;;;;;;;4.73;2.77;;;;;;;-2.14;82.47;145739.84;4964671;28;20239;-63
2024/01/08 00:54:08;;;;;;;4.17;2.70;;;;;;;-2.11;83.19;145747.25;4960798;28;23840;-63
2024/01/08 00:56:34;;;;;;;6.30;3.40;;;;;;;-2.13;81.73;145741.09;4963896;28;20236;-63
2024/01/08 00:59:03;;;;;;;6.00;3.10;;;;;;;-2.10;81.36;145749.72;4961356;28;20555;-63
2024/01/08 01:01:30;;;;;;;4.60;3.17;;;;;;;-2.19;81.80;145726.28;4963690;28;20805;-63
2024/01/08 01:03:56;;;;;;;8.57;3.67;;;;;;;-2.18;80.62;145729.97;4960421;28;20239;-63
2024/01/08 01:06:23;;;;;;;6.47;3.07;;;;;;;-2.20;81.39;145723.81;4960982;28;20235;-63
2024/01/08 01:08:49;;;;;;;7.17;3.03;;;;;;;-2.20;81.12;145723.81;4960570;28;20215;-63
2024/01/08 01:11:16;;;;;;;5.70;3.00;;;;;;;-2.15;81.29;145736.16;4965168;28;20247;-63
2024/01/08 01:13:43;;;;;;;5.00;3.20;;;;;;;-2.17;83.58;145731.22;4962271;28;20702;-63
2024/01/08 01:16:11;;;;;;;4.97;3.20;;;;;;;-2.17;81.57;145731.22;4963203;28;20239;-63
2024/01/08 01:18:37;;;;;;;5.70;3.10;;;;;;;-2.11;81.42;145745.97;4962255;28;20227;-63
2024/01/08 01:21:04;;;;;;;4.50;3.10;;;;;;;-2.12;81.28;145744.78;4962515;28;20230;-63
2024/01/08 01:23:31;;;;;;;5.27;3.40;;;;;;;-2.16;82.16;145733.69;4963959;28;20700;-63
2024/01/08 01:25:58;;;;;;;5.90;3.57;;;;;;;-2.15;81.79;145736.16;4960172;28;20280;-63
2024/01/08 01:28:24;;;;;;;4.70;3.10;;;;;;;-2.20;81.82;145725.03;4962521;28;20232;-63
2024/01/08 01:30:51;;;;;;;6.47;3.70;;;;;;;-2.21;82.16;145722.56;4959653;28;20239;-63
2024/01/08 01:33:19;;;;;;;11.30;3.67;;;;;;;-2.20;83.60;145725.03;4963422;28;20251;-63
2024/01/08 01:35:46;;;;;;;5.47;3.47;;;;;;;-2.13;83.04;145742.31;4961518;28;20240;-63
2024/01/08 01:38:13;;;;;;;6.07;3.50;;;;;;;-2.17;82.09;145732.44;4959248;28;20233;-63
2024/01/08 01:40:39;;;;;;;5.53;3.73;;;;;;;-2.16;83.92;145733.69;4961890;28;20749;-63
2024/01/08 01:43:20;;;;;;;7.00;3.97;;;;;;;-2.14;81.67;145739.84;4957975;28;20621;-63
2024/01/08 01:45:49;;;;;;;6.90;3.40;;;;;;;-2.17;80.45;145732.44;4961917;28;20609;-63
2024/01/08 01:48:15;;;;;;;5.47;3.63;;;;;;;-2.19;82.70;145726.28;4958011;28;20276;-63
2024/01/08 01:50:44;;;;;;;5.53;3.33;;;;;;;-2.30;81.65;145700.34;4961336;28;20889;-63
2024/01/08 01:53:10;;;;;;;6.00;3.50;;;;;;;-2.28;82.10;145706.53;4933129;28;20247;-63
2024/01/08 01:55:38;;;;;;;6.13;3.80;;;;;;;-2.27;82.53;145707.75;4962644;28;20242;-63
2024/01/08 01:58:06;;;;;;;2.90;1.93;;;;;;;-2.30;81.39;145700.34;4956668;28;20224;-63
2024/01/08 02:00:33;;;;;;;5.57;3.47;;;;;;;-2.25;81.53;145712.69;4963179;28;20236;-63
2024/01/08 02:03:01;;;;;;;6.33;3.87;;;;;;;-2.23;82.53;145717.63;4960258;28;20224;-63
2024/01/08 02:05:28;;;;;;;5.43;3.90;;;;;;;-2.28;82.45;145706.53;4964393;28;20227;-63
2024/01/08 02:07:57;;;;;;;5.77;3.83;;;;;;;-2.28;82.33;145705.28;4958369;28;20220;-63
2024/01/08 02:10:24;;;;;;;4.73;3.30;;;;;;;-2.23;81.59;145718.88;4961749;28;20576;-63
2024/01/08 02:12:51;;;;;;;6.57;4.55;;;;;;;-2.25;81.78;145712.69;4958835;28;20970;-63
2024/01/08 02:15:18;;;;;;;6.83;3.73;;;;;;;-2.18;81.06;145728.75;4964236;28;20228;-63
2024/01/08 02:17:44;;;;;;;4.73;3.63;;;;;;;-2.13;79.99;145741.09;4961710;28;20219;-63
2024/01/08 02:20:11;;;;;;;6.03;3.60;;;;;;;-2.18;81.88;145728.75;4960661;28;20236;-63
2024/01/08 02:22:41;;;;;;;6.77;3.80;;;;;;;-2.16;83.25;145734.91;4962576;28;20239;-63
2024/01/08 02:25:08;;;;;;;5.27;3.60;;;;;;;-2.14;82.29;145738.63;4958902;28;20253;-63
2024/01/08 02:27:34;;;;;;;4.63;3.47;;;;;;;-2.09;82.69;145750.91;4961966;28;20239;-63
2024/01/08 02:30:01;;;;;;;5.90;3.57;;;;;;;-2.17;82.08;145732.44;4961353;28;20220;-63
2024/01/08 02:32:27;;;;;;;6.80;4.30;;;;;;;-2.14;84.07;145739.84;4962464;28;20929;-62
2024/01/08 02:34:54;;;;;;;7.00;4.07;;;;;;;-2.17;81.90;145732.44;4959439;28;20220;-67
2024/01/08 02:37:20;;;;;;;5.03;3.13;;;;;;;-2.16;80.46;145733.69;4962127;28;20779;-66
2024/01/08 02:39:49;;;;;;;5.97;3.53;;;;;;;-2.18;80.42;145728.75;4961083;28;20228;-66
2024/01/08 02:42:18;;;;;;;4.60;3.30;;;;;;;-2.18;81.41;145729.97;4957536;28;20267;-67
2024/01/08 02:44:44;;;;;;;6.90;3.60;;;;;;;-2.19;80.30;145727.50;4959891;28;20314;-66
2024/01/08 02:47:11;;;;;;;5.57;3.80;;;;;;;-2.23;80.26;145718.88;4958780;28;20623;-66
2024/01/08 02:49:38;;;;;;;5.77;3.77;;;;;;;-2.17;82.23;145731.22;4949767;28;20241;-66
2024/01/08 02:52:05;;;;;;;5.87;3.73;;;;;;;-2.20;82.36;145725.03;4958712;28;20319;-66
2024/01/08 02:54:34;;;;;;;4.53;3.20;;;;;;;-2.14;80.28;145739.84;4962581;28;20224;-66
2024/01/08 02:57:03;;;;;;;6.23;3.30;;;;;;;-2.18;80.49;145729.97;4959127;28;20558;-66
2024/01/08 02:59:33;;;;;;;5.67;3.47;;;;;;;-2.18;79.56;145728.75;4960269;28;21052;-66
2024/01/08 03:01:59;;;;;;;5.97;4.07;;;;;;;-2.15;81.12;145736.16;4960117;28;20234;-67
2024/01/08 03:04:26;;;;;;;3.97;2.87;;;;;;;-2.14;80.83;145739.84;4961347;28;20236;-67
2024/01/08 03:06:53;;;;;;;5.80;3.67;;;;;;;-2.13;79.54;145741.09;4957978;28;20234;-66
2024/01/08 03:09:19;;;;;;;5.10;3.10;;;;;;;-2.09;80.87;145750.91;4963201;28;20232;-66
2024/01/08 03:11:46;;;;;;;4.93;3.40;;;;;;;-2.13;81.41;145741.09;4962256;28;20243;-66
2024/01/08 03:14:14;;;;;;;6.73;3.30;;;;;;;-2.12;80.39;145743.56;4963409;28;20754;-66
2024/01/08 03:16:40;;;;;;;4.03;2.77;;;;;;;-2.06;79.62;145758.31;4967037;28;20706;-66
2024/01/08 03:19:07;;;;;;;5.37;3.50;;;;;;;-2.04;79.75;145762.06;4962488;28;20219;-66
2024/01/08 03:21:33;;;;;;;4.90;3.30;;;;;;;-2.00;78.58;145773.13;4965940;28;20568;-66
2024/01/08 03:24:00;;;;;;;5.47;3.40;;;;;;;-2.04;78.74;145762.06;4963773;28;20321;-66
2024/01/08 03:26:27;;;;;;;5.03;3.20;;;;;;;-2.03;79.42;145765.72;4965744;28;20227;-66
2024/01/08 03:28:53;;;;;;;4.80;3.40;;;;;;;-2.01;79.67;145770.66;4962249;28;20237;-66
2024/01/08 03:31:21;;;;;;;6.30;3.67;;;;;;;-1.99;79.24;145775.59;4963718;28;20318;-66
2024/01/08 03:33:49;;;;;;;4.97;3.20;;;;;;;-1.94;78.83;145786.75;4963734;28;20711;-66
2024/01/08 03:36:15;;;;;;;5.93;3.37;;;;;;;-1.97;79.28;145779.34;4963587;28;20235;-66
2024/01/08 03:38:42;;;;;;;6.30;3.30;;;;;;;-2.02;79.26;145768.19;4964612;28;20644;-66
2024/01/08 03:41:09;;;;;;;4.93;3.30;;;;;;;-1.98;79.30;145776.84;4961405;28;20244;-66
2024/01/08 03:43:35;;;;;;;5.17;3.03;;;;;;;-1.97;78.51;145780.53;4954557;28;20595;-66
2024/01/08 03:46:02;;;;;;;5.83;3.33;;;;;;;-1.94;79.12;145787.94;4964291;28;20221;-66
2024/01/08 03:48:30;;;;;;;6.00;3.40;;;;;;;-1.95;79.17;145785.47;4956927;28;20235;-66
2024/01/08 03:50:57;;;;;;;3.60;2.27;;;;;;;-1.97;79.08;145779.34;4964060;28;20223;-66
2024/01/08 03:53:23;;;;;;;4.17;2.27;;;;;;;-2.00;79.71;145771.94;4965214;28;20742;-66
2024/01/08 03:55:50;;;;;;;4.03;3.00;;;;;;;-2.00;80.19;145771.94;4963246;28;20230;-66
2024/01/08 03:58:17;;;;;;;4.90;3.57;;;;;;;-2.01;80.71;145769.47;4964114;28;20224;-66
2024/01/08 04:04:01;;;;;;;5.63;3.73;;;;;;;-1.93;80.76;145790.41;5664438;23;20223;-66
2024/01/08 04:06:27;;;;;;;5.33;3.27;;;;;;;-1.94;80.82;145787.94;4996940;28;20293;-66
2024/01/08 04:08:54;;;;;;;4.93;3.30;;;;;;;-1.85;78.59;145807.69;5001871;28;20242;-66
2024/01/08 04:11:21;;;;;;;5.70;3.57;;;;;;;-1.88;81.11;145800.28;5004427;28;20231;-66
2024/01/08 04:13:47;;;;;;;5.37;3.10;;;;;;;-1.88;80.25;145800.28;5001479;28;20234;-65
2024/01/08 04:16:14;;;;;;;4.17;3.20;;;;;;;-1.84;78.90;145811.44;5001243;28;20240;-66
2024/01/08 04:18:40;;;;;;;6.63;3.70;;;;;;;-1.82;78.12;145815.09;5003728;28;20228;-66
2024/01/08 04:21:08;;;;;;;5.03;3.20;;;;;;;-1.76;76.52;145829.91;5000209;28;20223;-66
2024/01/08 04:23:35;;;;;;;6.60;3.40;;;;;;;-1.86;78.49;145806.50;5005687;28;20231;-66
2024/01/08 04:26:02;;;;;;;6.40;3.23;;;;;;;-1.91;78.52;145792.88;5002413;28;20227;-66
2024/01/08 04:28:28;;;;;;;5.17;3.37;;;;;;;-1.88;78.01;145801.56;4998490;28;20242;-66
2024/01/08 04:30:55;;;;;;;5.97;3.57;;;;;;;-1.88;78.95;145800.28;5208620;23;20206;-67
2024/01/08 04:33:21;;;;;;;5.97;3.40;;;;;;;-1.82;79.21;145815.09;5001098;28;20230;-66
2024/01/08 04:35:48;;;;;;;3.67;2.50;;;;;;;-1.86;78.30;145805.22;5002822;28;20223;-66
2024/01/08 04:38:16;;;;;;;5.17;3.33;;;;;;;-1.87;80.75;145802.75;5003947;28;20234;-66
2024/01/08 04:40:42;;;;;;;5.60;3.33;;;;;;;-1.83;80.37;145813.91;5005493;28;20218;-66
2024/01/08 04:43:09;;;;;;;4.77;2.87;;;;;;;-1.89;79.44;145797.81;4985704;28;20250;-66
2024/01/08 04:45:35;;;;;;;7.17;3.87;;;;;;;-1.90;79.83;145795.34;5004665;28;20231;-67
2024/01/08 04:48:03;;;;;;;5.60;3.63;;;;;;;-1.87;80.06;145802.75;4996712;28;20300;-66
2024/01/08 04:50:30;;;;;;;5.00;3.33;;;;;;;-1.84;82.50;145811.44;5004669;28;20232;-66
2024/01/08 04:52:57;;;;;;;5.07;3.17;;;;;;;-1.84;81.67;145810.16;5000440;28;20220;-66
2024/01/08 04:55:25;;;;;;;5.63;3.50;;;;;;;-1.81;80.64;145818.84;5004994;28;20307;-66
2024/01/08 04:57:52;;;;;;;4.73;2.83;;;;;;;-1.82;80.13;145815.09;5000859;28;20239;-67
2024/01/08 05:00:18;;;;;;;5.03;3.27;;;;;;;-1.79;79.23;145823.78;5005210;28;20234;-67
2024/01/08 05:02:45;;;;;;;5.43;3.60;;;;;;;-1.81;80.83;145818.84;5004390;28;20227;-66
2024/01/08 05:05:12;;;;;;;5.70;3.50;;;;;;;-1.86;80.01;145805.22;4998535;28;20235;-66
2024/01/08 05:07:38;;;;;;;6.00;3.80;;;;;;;-1.82;80.03;145815.09;5005116;28;20223;-66
2024/01/08 05:10:06;;;;;;;4.33;2.87;;;;;;;-1.87;80.26;145804.03;5002152;28;20225;-66
2024/01/08 05:12:34;;;;;;;5.53;3.57;;;;;;;-1.82;80.11;145815.09;5004889;28;20333;-67
2024/01/08 05:15:01;;;;;;;4.97;3.37;;;;;;;-1.84;80.22;145811.44;4990619;28;20226;-66
2024/01/08 05:17:28;;;;;;;6.13;3.50;;;;;;;-1.87;79.96;145802.75;5002745;28;20241;-67
2024/01/08 05:19:55;;;;;;;4.70;3.57;;;;;;;-1.82;80.08;145816.38;5002640;28;20227;-67
2024/01/08 05:22:21;;;;;;;5.90;3.47;;;;;;;-1.76;79.68;145828.72;5005150;28;20574;-67
2024/01/08 05:24:48;;;;;;;5.80;3.37;;;;;;;-1.80;79.46;145820.03;4997982;28;20235;-66
2024/01/08 05:27:14;;;;;;;5.23;3.80;;;;;;;-1.88;81.80;145801.56;5001034;28;20223;-66
2024/01/08 05:29:43;;;;;;;5.03;3.73;;;;;;;-1.87;81.33;145804.03;5005239;28;20232;-67
2024/01/08 05:32:10;;;;;;;4.97;3.30;;;;;;;-1.89;81.84;145797.81;5001377;28;20259;-66
2024/01/08 05:34:37;;;;;;;4.97;3.10;;;;;;;-1.86;81.19;145805.22;5001889;28;20709;-66
2024/01/08 05:37:08;;;;;;;5.33;3.70;;;;;;;-1.82;81.89;145816.38;4991678;28;20219;-67
2024/01/08 05:39:35;;;;;;;5.43;3.60;;;;;;;-1.79;82.76;145823.78;5003599;28;20245;-66
2024/01/08 05:42:02;;;;;;;5.17;3.53;;;;;;;-1.78;81.58;145824.97;4999264;28;20235;-66
2024/01/08 05:44:32;;;;;;;5.77;4.20;;;;;;;-1.79;83.70;145823.78;4987118;28;20637;-66
2024/01/08 05:47:00;;;;;;;5.40;3.90;;;;;;;-1.80;84.11;145821.31;5010675;28;20234;-66
2024/01/08 05:49:27;;;;;;;5.07;3.37;;;;;;;-1.75;82.27;145831.19;5005007;28;20954;-66
2024/01/08 05:51:53;;;;;;;6.90;4.10;;;;;;;-1.74;83.53;145833.66;5001615;28;20251;-66
2024/01/08 05:54:20;;;;;;;6.20;2.83;;;;;;;-1.72;82.78;145839.78;5003274;28;20239;-66
2024/01/08 05:56:47;;;;;;;6.70;4.20;;;;;;;-1.65;82.92;145855.88;5004952;28;20231;-66
2024/01/08 05:59:13;;;;;;;5.13;4.07;;;;;;;-1.66;83.84;145853.41;5002449;28;20219;-66
2024/01/08 06:01:40;;;;;;;4.80;3.93;;;;;;;-1.70;84.05;145844.72;5004795;28;20305;-66
2024/01/08 06:04:08;;;;;;;6.97;4.57;;;;;;;-1.71;84.01;145842.25;5001465;28;20695;-67
2024/01/08 06:06:35;;;;;;;6.27;3.93;;;;;;;-1.72;82.44;145838.59;5004783;28;20564;-66
2024/01/08 06:09:01;;;;;;;5.33;3.73;;;;;;;-1.79;83.14;145822.50;5001809;28;20577;-67
2024/01/08 06:11:28;;;;;;;5.73;4.33;;;;;;;-1.82;84.39;145815.09;5004968;28;20232;-67
2024/01/08 06:13:55;;;;;;;6.80;4.03;;;;;;;-1.74;84.70;145833.66;4995108;28;20227;-67
2024/01/08 06:16:21;;;;;;;5.13;3.63;;;;;;;-1.82;83.99;145815.09;5004162;28;20601;-67
2024/01/08 06:18:48;;;;;;;7.67;4.07;;;;;;;-1.86;83.90;145806.50;5004563;28;20235;-67
2024/01/08 06:21:16;;;;;;;9.23;5.07;;;;;;;-1.79;83.98;145823.78;5002147;28;20788;-67
2024/01/08 06:23:42;;;;;;;12.20;6.17;;;;;;;-1.84;85.13;145810.16;5004073;28;20228;-67
2024/01/08 06:26:09;;;;;;;8.23;4.33;;;;;;;-1.86;83.51;145806.50;5001784;28;20607;-67
2024/01/08 06:28:36;;;;;;;5.27;3.83;;;;;;;-1.84;82.52;145810.16;5003053;28;20821;-66
2024/01/08 06:31:04;;;;;;;4.23;3.30;;;;;;;-1.95;82.63;145785.47;5000138;28;20231;-67
2024/01/08 06:33:31;;;;;;;6.93;3.90;;;;;;;-1.85;82.46;145808.97;4994675;28;20284;-66
2024/01/08 06:35:57;;;;;;;5.63;3.70;;;;;;;-1.92;83.82;145791.69;5001711;28;20235;-67
2024/01/08 06:38:26;;;;;;;4.30;3.10;;;;;;;-1.99;82.08;145775.59;5004364;28;20270;-67
2024/01/08 06:40:52;;;;;;;9.43;4.90;;;;;;;-1.91;82.41;145792.88;5001526;28;20724;-67
2024/01/08 06:43:19;;;;;;;5.93;4.07;;;;;;;-1.98;81.50;145776.84;5003381;28;20226;-67
2024/01/08 06:45:46;;;;;;;4.90;3.10;;;;;;;-2.03;81.69;145765.72;5007079;28;20228;-67
2024/01/08 06:48:12;;;;;;;5.37;3.60;;;;;;;-2.08;81.73;145753.38;5005035;28;20254;-67
2024/01/08 06:50:40;;;;;;;6.70;3.70;;;;;;;-2.06;81.71;145757.13;5007766;28;20234;-67
2024/01/08 06:53:06;;;;;;;7.57;4.10;;;;;;;-2.05;82.33;145760.78;5004704;28;20246;-67
2024/01/08 06:55:34;;;;;;;5.67;3.67;;;;;;;-2.04;80.27;145762.06;5008122;28;20584;-67
2024/01/08 06:58:01;;;;;;;6.23;3.90;;;;;;;-2.05;80.59;145760.78;5005157;28;20234;-67
2024/01/08 07:00:28;;;;;;;5.30;3.67;;;;;;;-2.02;78.99;145767.00;5007905;28;20237;-67
2024/01/08 07:02:55;;;;;;;6.80;4.10;;;;;;;-2.11;78.88;145747.25;5002631;28;20261;-67
2024/01/08 07:05:22;;;;;;;3.40;2.63;;;;;;;-2.13;78.67;145742.31;5006580;28;20241;-66
2024/01/08 07:07:48;;;;;;;7.57;4.23;;;;;;;-2.11;79.31;145747.25;5004593;28;20620;-68
2024/01/08 07:10:15;;;;;;;6.10;3.40;;;;;;;-2.12;78.92;145744.78;5008118;28;20233;-67
2024/01/08 07:12:43;;;;;;;5.20;3.40;;;;;;;-2.06;79.76;145757.13;4999448;28;20231;-67
2024/01/08 07:15:36;;;;;;;9.20;3.97;;;;;;;-2.04;78.75;145763.25;5005107;28;20235;-67
2024/01/08 07:18:03;;;;;;;5.70;3.77;;;;;;;-2.05;79.16;145759.59;5005252;28;20230;-67
2024/01/08 07:20:30;;;;;;;8.63;3.67;;;;;;;-2.12;77.78;145744.78;5003071;28;20245;-67
2024/01/08 07:22:56;;;;;;;4.57;2.20;;;;;;;-2.19;78.70;145726.28;4996733;28;20218;-67
2024/01/08 07:25:23;;;;;;;5.43;3.90;;;;;;;-2.13;79.34;145742.31;5006460;28;20241;-67
2024/01/08 07:27:51;;;;;;;6.70;3.87;;;;;;;-2.12;79.11;145744.78;5003210;28;20229;-67
2024/01/08 07:30:18;;;;;;;6.17;3.83;;;;;;;-2.08;78.43;145753.38;5007313;28;20594;-67
2024/01/08 07:32:45;;;;;;;7.93;5.50;;;;;;;-2.10;78.36;145749.72;5002405;28;20327;-67
2024/01/08 07:35:13;;;;;;;11.47;6.17;;;;;;;-2.13;78.11;145742.31;4994981;28;20234;-67
2024/01/08 07:37:40;;;;;;;5.60;3.83;;;;;;;-2.07;76.69;145755.84;5007149;28;20238;-66
2024/01/08 07:40:08;;;;;;;12.13;7.40;;;;;;;-2.15;79.05;145737.38;5004223;28;20226;-67
2024/01/08 07:42:34;;;;;;;18.60;12.53;;;;;;;-2.18;78.23;145729.97;5006990;28;20713;-67
2024/01/08 07:45:02;;;;;;;12.07;7.33;;;;;;;-2.17;77.69;145731.22;5004133;28;20246;-66
2024/01/08 07:47:29;;;;;;;10.00;4.77;;;;;;;-2.18;76.71;145728.75;5006721;28;20230;-66
2024/01/08 07:49:55;;;;;;;18.70;10.27;;;;;;;-2.19;77.71;145726.28;5004129;28;20224;-67
2024/01/08 07:52:22;;;;;;;5.13;3.10;;;;;;;-2.25;77.79;145713.94;5005440;28;20262;-66
2024/01/08 07:54:49;;;;;;;7.57;4.07;;;;;;;-2.15;77.65;145737.38;5003763;28;20707;-67
2024/01/08 07:57:15;;;;;;;20.50;15.27;;;;;;;-2.15;78.45;145736.16;5006695;28;20225;-66
2024/01/08 07:59:42;;;;;;;12.10;7.37;;;;;;;-2.16;77.79;145733.69;5006511;28;20588;-67
2024/01/08 08:02:10;;;;;;;6.60;3.50;;;;;;;-2.17;78.31;145732.44;5003586;28;20321;-67
2024/01/08 08:04:37;;;;;;;7.77;5.63;;;;;;;-2.10;78.39;145748.44;5005119;28;20352;-68
2024/01/08 08:07:04;;;;;;;9.60;5.90;;;;;;;-2.04;79.81;145762.06;5003882;28;20715;-67
2024/01/08 08:09:33;;;;;;;5.77;4.23;;;;;;;-2.04;76.87;145762.06;5006193;28;20302;-67
2024/01/08 08:11:59;;;;;;;6.97;4.80;;;;;;;-2.09;76.83;145752.19;5002871;28;20454;-67
2024/01/08 08:14:26;;;;;;;8.43;4.63;;;;;;;-2.03;76.38;145765.72;5004277;28;20240;-67
2024/01/08 08:16:53;;;;;;;9.17;4.73;;;;;;;-1.99;76.84;145774.41;4996063;28;20226;-67
2024/01/08 08:19:22;;;;;;;9.67;5.60;;;;;;;-1.98;76.75;145776.84;5019617;28;20265;-67
2024/01/08 08:21:48;;;;;;;7.60;4.47;;;;;;;-2.06;77.47;145758.31;4995103;28;20226;-68
2024/01/08 08:24:15;;;;;;;7.30;4.27;;;;;;;-1.88;76.96;145800.28;5005670;28;20231;-67
2024/01/08 08:26:42;;;;;;;7.87;4.77;;;;;;;-1.98;76.15;145778.06;4989519;28;20316;-68
2024/01/08 08:29:08;;;;;;;7.33;4.53;;;;;;;-1.88;77.53;145801.56;4993993;28;20256;-68
2024/01/08 08:31:35;;;;;;;6.90;4.93;;;;;;;-1.93;78.44;145790.41;5005977;28;20244;-68
2024/01/08 08:34:02;;;;;;;7.33;4.87;;;;;;;-1.84;78.95;145810.16;4994765;28;20288;-68
2024/01/08 08:36:30;;;;;;;8.33;4.83;;;;;;;-1.78;78.47;145824.97;5006771;28;20224;-67
2024/01/08 08:38:57;;;;;;;8.63;5.37;;;;;;;-1.82;79.83;145815.09;5002870;28;20233;-68
2024/01/08 08:41:24;;;;;;;9.13;5.03;;;;;;;-1.79;76.85;145823.78;5005901;28;20238;-68
2024/01/08 08:43:52;;;;;;;10.60;5.87;;;;;;;-1.84;76.23;145811.44;5002869;28;20231;-68
2024/01/08 08:46:19;;;;;;;8.50;5.20;;;;;;;-1.80;78.17;145820.03;5006273;28;20247;-68
2024/01/08 08:48:45;;;;;;;10.00;6.77;;;;;;;-1.85;78.34;145808.97;5006211;28;20223;-68
2024/01/08 08:51:12;;;;;;;8.50;4.97;;;;;;;-1.78;78.61;145824.97;5001217;28;20243;-68
2024/01/08 08:53:40;;;;;;;7.80;5.13;;;;;;;-1.72;77.90;145839.78;5005574;28;20785;-68
2024/01/08 08:56:09;;;;;;;7.10;4.67;;;;;;;-1.81;76.05;145817.56;5002034;28;20228;-68
2024/01/08 08:58:35;;;;;;;7.50;4.63;;;;;;;-1.74;75.67;145833.66;5005095;28;20253;-68
2024/01/08 09:01:02;;;;;;;8.23;4.80;;;;;;;-1.73;75.80;145837.31;4997487;28;20720;-68
2024/01/08 09:03:29;;;;;;;6.80;4.30;;;;;;;-1.68;77.51;145849.66;5005141;28;20226;-68
2024/01/08 09:05:55;;;;;;;8.87;5.17;;;;;;;-1.65;76.15;145857.09;4996233;28;20692;-68
2024/01/08 09:08:25;;;;;;;7.93;5.53;;;;;;;-1.69;77.69;145847.19;5004224;28;20216;-68
2024/01/08 09:10:53;;;;;;;8.70;4.63;;;;;;;-1.68;73.06;145848.47;5001922;28;20580;-68
2024/01/08 09:13:20;;;;;;;5.40;4.30;;;;;;;-1.76;73.52;145829.91;5004989;28;20706;-68
2024/01/08 09:15:47;;;;;;;6.57;4.10;;;;;;;-1.60;73.34;145868.22;5004395;28;20231;-68
2024/01/08 09:18:13;;;;;;;7.10;4.23;;;;;;;-1.67;72.85;145850.94;5002003;28;20234;-68
2024/01/08 09:20:40;;;;;;;8.20;5.20;;;;;;;-1.56;72.35;145876.84;5005062;28;20246;-68
2024/01/08 09:23:07;;;;;;;0.00;0.00;;;;;;;-1.65;71.17;145857.09;5001654;28;20238;-68
2024/01/08 09:25:33;;;;;;;0.00;0.00;;;;;;;-1.66;71.19;145853.41;4988218;28;20555;-68
2024/01/08 09:28:01;;;;;;;0.00;0.00;;;;;;;-1.64;73.35;145859.56;4991202;28;20241;-67
2024/01/08 09:30:29;;;;;;;0.00;0.00;;;;;;;-1.50;73.46;145891.66;5003752;28;20235;-67
2024/01/08 09:32:55;;;;;;;0.00;0.00;;;;;;;-1.49;70.80;145894.13;4995549;28;20243;-67
2024/01/08 09:35:22;;;;;;;0.00;0.00;;;;;;;-1.44;72.90;145905.22;5005173;28;20239;-67
2024/01/08 09:37:49;;;;;;;0.00;0.00;;;;;;;-1.35;71.09;145927.44;5001508;28;20223;-67
2024/01/08 09:40:15;;;;;;;0.00;0.00;;;;;;;-1.34;69.71;145931.16;5003370;28;20227;-67
2024/01/08 09:42:42;;;;;;;0.00;0.00;;;;;;;-1.23;71.15;145957.06;5003909;28;20250;-67
2024/01/08 09:45:12;;;;;;;0.00;0.00;;;;;;;-1.28;69.36;145943.53;5001800;28;20283;-67
2024/01/08 09:47:40;;;;;;;0.00;0.00;;;;;;;-1.13;71.29;145979.31;4993299;28;20236;-67
2024/01/08 09:50:09;;;;;;;0.00;0.00;;;;;;;-1.01;70.99;146007.69;5000380;28;20785;-67
2024/01/08 09:52:39;;;;;;;0.00;0.00;;;;;;;-1.08;71.18;145991.66;5002515;28;20567;-67
2024/01/08 09:55:08;;;;;;;0.00;0.00;;;;;;;-0.92;71.17;146029.94;5001223;28;20226;-67
2024/01/08 09:57:35;;;;;;;0.00;0.00;;;;;;;-0.95;69.20;146023.78;5004118;28;20223;-67
2024/01/08 10:00:02;;;;;;;0.00;0.00;;;;;;;-1.11;69.29;145984.25;4996567;28;20705;-67
2024/01/08 10:02:41;;;;;;;0.00;0.00;;;;;;;-0.89;70.11;146037.34;5005009;28;20238;-67
2024/01/08 10:05:09;;;;;;;0.00;0.00;;;;;;;-0.86;70.68;146043.53;5001446;28;22888;-67
2024/01/08 10:07:36;;;;;;;0.00;0.00;;;;;;;-0.90;70.98;146036.13;5011242;28;20231;-67
2024/01/08 10:10:03;;;;;;;0.00;0.00;;;;;;;-0.88;69.26;146038.59;5001385;28;20326;-67
2024/01/08 10:12:32;;;;;;;0.00;0.00;;;;;;;-0.88;68.03;146038.59;5003923;28;20247;-67
2024/01/08 10:14:59;;;;;;;0.00;0.00;;;;;;;-1.37;70.19;145923.75;4996064;28;20256;-67
2024/01/08 10:17:26;;;;;;;0.00;0.00;;;;;;;-1.16;70.48;145973.16;5004556;28;20230;-67
2024/01/08 10:20:06;;;;;;;0.00;0.00;;;;;;;-1.05;69.29;146000.28;5002478;28;20240;-67
2024/01/08 10:22:32;;;;;;;0.00;0.00;;;;;;;-1.14;69.99;145976.84;5008398;28;20252;-67
2024/01/08 10:25:03;;;;;;;0.00;0.00;;;;;;;-0.94;68.90;146025.00;5005130;28;20220;-67
2024/01/08 10:27:30;;;;;;;0.00;0.00;;;;;;;-0.83;69.53;146050.97;5008302;28;20245;-67
2024/01/08 10:29:57;;;;;;;0.00;0.00;;;;;;;-0.79;70.04;146060.84;4999803;28;20231;-67
2024/01/08 10:32:23;;;;;;;0.00;0.00;;;;;;;-0.90;68.45;146034.88;5008197;28;20242;-67
2024/01/08 10:34:51;;;;;;;0.00;0.00;;;;;;;-0.72;67.01;146076.88;4997742;28;20228;-67
2024/01/08 10:37:19;;;;;;;0.00;0.00;;;;;;;-0.84;68.47;146049.69;5008191;28;20247;-67
2024/01/08 10:39:47;;;;;;;0.00;0.00;;;;;;;-0.81;69.17;146055.91;5008453;28;20244;-67
2024/01/08 10:42:13;;;;;;;0.00;0.00;;;;;;;-1.24;68.08;145953.41;5001329;28;20234;-67
2024/01/08 10:44:40;;;;;;;0.00;0.00;;;;;;;-1.31;69.04;145937.31;5008018;28;20243;-67
2024/01/08 10:47:10;;;;;;;0.00;0.00;;;;;;;-1.34;69.11;145929.91;5005141;28;20231;-67
2024/01/08 10:49:36;;;;;;;0.00;0.00;;;;;;;-1.51;70.16;145889.19;5007316;28;20721;-67
2024/01/08 10:52:11;;;;;;;0.00;0.00;;;;;;;-1.35;70.00;145928.69;5005073;28;20238;-67
2024/01/08 10:54:44;;;;;;;0.00;0.00;;;;;;;-1.31;70.04;145936.09;5007388;28;20254;-67
2024/01/08 10:57:14;;;;;;;0.00;0.00;;;;;;;-1.16;70.49;145973.16;5002538;28;20244;-67
2024/01/08 10:59:43;;;;;;;0.00;0.00;;;;;;;-1.02;69.71;146006.47;5003142;28;20230;-67
2024/01/08 11:02:14;;;;;;;0.00;0.00;;;;;;;-0.84;68.91;146049.69;5002103;28;20242;-71
2024/01/08 11:04:42;;;;;;;0.00;0.00;;;;;;;-1.02;68.50;146006.47;5006046;28;20230;-68
2024/01/08 11:07:09;;;;;;;0.00;0.00;;;;;;;-0.82;69.22;146053.44;5003190;28;23981;-68
2024/01/08 11:09:36;;;;;;;0.00;0.00;;;;;;;-0.77;68.78;146067.00;5005733;28;20298;-68
2024/01/08 11:12:05;;;;;;;0.00;0.00;;;;;;;-0.50;69.29;146131.25;5003385;28;20246;-68
2024/01/08 11:14:33;;;;;;;0.00;0.00;;;;;;;-0.41;67.82;146152.22;5005944;28;20321;-69
2024/01/08 11:17:01;;;;;;;0.00;0.00;;;;;;;-0.37;66.67;146162.13;5004205;28;20230;-68
2024/01/08 11:19:28;;;;;;;0.00;0.00;;;;;;;-0.57;66.72;146112.72;5007429;28;20247;-68
2024/01/08 11:21:56;;;;;;;0.00;0.00;;;;;;;-0.77;66.88;146067.00;4995637;28;20238;-68
2024/01/08 11:24:23;;;;;;;0.00;0.00;;;;;;;-0.65;65.74;146094.19;5005980;28;20252;-68
2024/01/08 11:26:51;;;;;;;0.00;0.00;;;;;;;-0.68;66.23;146088.03;5003975;28;20246;-66